Time;durP1;ratioP1;P1;durP2;ratioP2;P2;SDS_P1;SDS_P2;PMS_P1;PMS_P2;Temp;Humidity;BMP_temperature;BMP_pressure;BME280_temperature;BME280_humidity;BME280_pressure;Samples;Min_cycle;Max_cycle;Signal;HPM_P1;HPM_P2
2024/01/04 00:02:06;;;;;;;17.17;14.80;;;;;;;;;;5112818;28;20290;-78
2024/01/04 00:04:34;;;;;;;4.77;4.17;;;;;;;;;;5113370;28;20200;-78
2024/01/04 00:07:07;;;;;;;2.63;2.43;;;;;;;;;;5112770;28;20192;-78
2024/01/04 00:09:34;;;;;;;1.90;1.80;;;;;;;;;;5105053;28;20192;-79
2024/01/04 00:12:01;;;;;;;4.77;3.87;;;;;;;;;;5092374;28;20658;-79
2024/01/04 00:14:28;;;;;;;3.70;3.10;;;;;;;;;;5092250;28;20283;-79
2024/01/04 00:16:55;;;;;;;4.33;3.40;;;;;;;;;;5097913;28;20592;-79
2024/01/04 00:19:25;;;;;;;5.03;3.60;;;;;;;;;;5111999;28;20219;-79
2024/01/04 00:21:54;;;;;;;4.77;3.10;;;;;;;;;;5112071;28;20257;-78
2024/01/04 00:24:21;;;;;;;2.83;2.60;;;;;;;;;;5112616;28;20304;-78
2024/01/04 00:26:47;;;;;;;4.27;3.23;;;;;;;;;;5111966;28;20192;-78
2024/01/04 00:29:14;;;;;;;6.37;4.27;;;;;;;;;;5113302;28;20195;-78
2024/01/04 00:31:41;;;;;;;5.80;3.73;;;;;;;;;;5112547;28;20230;-78
2024/01/04 00:34:09;;;;;;;6.53;3.83;;;;;;;;;;5112584;28;20604;-78
2024/01/04 00:36:35;;;;;;;3.73;2.73;;;;;;;;;;5112912;28;20195;-78
2024/01/04 00:39:04;;;;;;;3.73;2.20;;;;;;;;;;5111164;28;20612;-79
2024/01/04 00:41:30;;;;;;;3.27;2.33;;;;;;;;;;5112222;28;20199;-78
2024/01/04 00:43:57;;;;;;;2.47;2.27;;;;;;;;;;5112469;28;20199;-78
2024/01/04 00:46:24;;;;;;;2.80;2.50;;;;;;;;;;5112310;28;20268;-78
2024/01/04 00:48:51;;;;;;;5.67;2.80;;;;;;;;;;5108958;28;20195;-78
2024/01/04 00:51:18;;;;;;;2.77;2.53;;;;;;;;;;5100633;28;20322;-79
2024/01/04 00:53:45;;;;;;;2.37;2.17;;;;;;;;;;5111508;28;20682;-78
2024/01/04 00:56:13;;;;;;;2.10;1.90;;;;;;;;;;5112215;28;20200;-78
2024/01/04 00:58:40;;;;;;;2.53;2.33;;;;;;;;;;5111396;28;20198;-78
2024/01/04 01:01:07;;;;;;;3.93;3.10;;;;;;;;;;5112331;28;20202;-78
2024/01/04 01:03:34;;;;;;;5.27;3.70;;;;;;;;;;5112380;28;20686;-78
2024/01/04 01:06:00;;;;;;;3.40;2.50;;;;;;;;;;5111920;28;20600;-78
2024/01/04 01:08:27;;;;;;;4.70;2.53;;;;;;;;;;5111967;28;20199;-78
2024/01/04 01:10:54;;;;;;;4.33;2.60;;;;;;;;;;5110946;28;20195;-78
2024/01/04 01:13:22;;;;;;;3.27;2.53;;;;;;;;;;5111989;28;20219;-78
2024/01/04 01:15:49;;;;;;;2.40;2.20;;;;;;;;;;5112524;28;20199;-78
2024/01/04 01:18:15;;;;;;;2.57;2.20;;;;;;;;;;5112845;28;20192;-79
2024/01/04 01:20:42;;;;;;;6.37;3.17;;;;;;;;;;5110598;28;20196;-78
2024/01/04 01:23:09;;;;;;;2.83;2.40;;;;;;;;;;5111387;28;20256;-78
2024/01/04 01:25:36;;;;;;;2.30;2.10;;;;;;;;;;5111312;28;20582;-78
2024/01/04 01:28:03;;;;;;;2.27;2.07;;;;;;;;;;5111075;28;20670;-78
2024/01/04 01:30:31;;;;;;;2.97;1.83;;;;;;;;;;5111170;28;20195;-78
2024/01/04 01:32:57;;;;;;;2.60;2.40;;;;;;;;;;5112112;28;20227;-78
2024/01/04 01:35:24;;;;;;;2.40;2.20;;;;;;;;;;5112352;28;20195;-78
2024/01/04 01:37:51;;;;;;;3.17;2.40;;;;;;;;;;5112327;28;20218;-78
2024/01/04 01:40:18;;;;;;;2.10;1.90;;;;;;;;;;5111822;28;20548;-78
2024/01/04 01:42:47;;;;;;;3.43;2.30;;;;;;;;;;5112470;28;20199;-78
2024/01/04 01:45:14;;;;;;;2.57;2.20;;;;;;;;;;5110261;28;20286;-78
2024/01/04 01:47:42;;;;;;;2.40;2.20;;;;;;;;;;5111636;28;20202;-78
2024/01/04 01:50:09;;;;;;;2.73;2.53;;;;;;;;;;5110323;28;20566;-78
2024/01/04 01:52:37;;;;;;;3.67;2.20;;;;;;;;;;5111449;28;20246;-78
2024/01/04 01:55:05;;;;;;;2.50;1.90;;;;;;;;;;5110560;28;20252;-78
2024/01/04 01:57:33;;;;;;;2.90;2.13;;;;;;;;;;5110792;28;20192;-78
2024/01/04 02:00:00;;;;;;;2.20;1.97;;;;;;;;;;5110904;28;20187;-78
2024/01/04 02:02:27;;;;;;;3.23;2.30;;;;;;;;;;5113803;28;20191;-78
2024/01/04 02:04:56;;;;;;;2.73;2.10;;;;;;;;;;5114637;28;20207;-78
2024/01/04 02:07:23;;;;;;;2.57;2.00;;;;;;;;;;5115208;28;20196;-78
2024/01/04 02:09:50;;;;;;;2.00;1.80;;;;;;;;;;5115156;28;20196;-78
2024/01/04 02:12:17;;;;;;;2.67;2.30;;;;;;;;;;5115252;28;20299;-78
2024/01/04 02:14:44;;;;;;;2.17;1.90;;;;;;;;;;5115731;28;20195;-78
2024/01/04 02:17:11;;;;;;;2.50;2.13;;;;;;;;;;5114987;28;20195;-78
2024/01/04 02:19:38;;;;;;;2.13;1.80;;;;;;;;;;5115450;28;20679;-78
2024/01/04 02:22:06;;;;;;;4.80;2.00;;;;;;;;;;5114867;28;20199;-78
2024/01/04 02:24:34;;;;;;;2.20;2.00;;;;;;;;;;5114943;28;20616;-78
2024/01/04 02:27:01;;;;;;;2.97;2.70;;;;;;;;;;5114787;28;20215;-78
2024/01/04 02:29:27;;;;;;;1.83;1.73;;;;;;;;;;5112785;28;20199;-78
2024/01/04 02:31:54;;;;;;;2.70;2.20;;;;;;;;;;5113984;28;20226;-78
2024/01/04 02:34:21;;;;;;;2.87;2.27;;;;;;;;;;5114498;28;20195;-78
2024/01/04 02:36:48;;;;;;;7.23;2.10;;;;;;;;;;5114429;28;20207;-78
2024/01/04 02:39:14;;;;;;;3.17;2.70;;;;;;;;;;5115422;28;20198;-78
2024/01/04 02:41:43;;;;;;;3.10;2.50;;;;;;;;;;5114931;28;20195;-78
2024/01/04 02:44:09;;;;;;;3.40;2.50;;;;;;;;;;5114356;28;20195;-78
2024/01/04 02:46:36;;;;;;;3.57;2.03;;;;;;;;;;5115270;28;20207;-78
2024/01/04 02:49:03;;;;;;;3.23;2.40;;;;;;;;;;5114396;28;20208;-78
2024/01/04 02:51:30;;;;;;;3.10;2.30;;;;;;;;;;5114633;28;20195;-78
2024/01/04 02:53:57;;;;;;;2.50;2.20;;;;;;;;;;5114240;28;20226;-78
2024/01/04 02:56:24;;;;;;;1.67;1.57;;;;;;;;;;5114555;28;20203;-78
2024/01/04 02:58:52;;;;;;;7.03;2.93;;;;;;;;;;5114235;28;20199;-78
2024/01/04 03:01:20;;;;;;;1.73;1.63;;;;;;;;;;5112647;28;20200;-78
2024/01/04 03:03:47;;;;;;;3.47;2.40;;;;;;;;;;5113429;28;20235;-78
2024/01/04 03:06:14;;;;;;;2.13;1.83;;;;;;;;;;5114553;28;20584;-80
2024/01/04 03:08:40;;;;;;;3.63;1.97;;;;;;;;;;5073423;28;20204;-78
2024/01/04 03:11:07;;;;;;;1.97;1.70;;;;;;;;;;5073477;28;20250;-79
2024/01/04 03:13:34;;;;;;;1.80;1.70;;;;;;;;;;5072708;28;20213;-79
2024/01/04 03:16:02;;;;;;;2.17;2.00;;;;;;;;;;5073649;28;20204;-78
2024/01/04 03:18:30;;;;;;;2.13;1.93;;;;;;;;;;5073792;28;20193;-79
2024/01/04 03:20:57;;;;;;;3.57;1.80;;;;;;;;;;5073233;28;20262;-78
2024/01/04 03:23:24;;;;;;;2.27;2.07;;;;;;;;;;5098810;28;20192;-79
2024/01/04 03:25:53;;;;;;;2.10;1.80;;;;;;;;;;5114138;28;20199;-79
2024/01/04 03:28:20;;;;;;;2.13;1.93;;;;;;;;;;5112549;28;20200;-79
2024/01/04 03:30:47;;;;;;;5.67;4.20;;;;;;;;;;5113475;28;20711;-79
2024/01/04 03:33:15;;;;;;;3.20;2.50;;;;;;;;;;5111724;28;20560;-80
2024/01/04 03:35:42;;;;;;;3.50;3.20;;;;;;;;;;5105072;28;20199;-79
2024/01/04 03:38:31;;;;;;;4.07;3.67;;;;;;;;;;5113143;28;20199;-79
2024/01/04 03:40:57;;;;;;;3.07;2.77;;;;;;;;;;5103087;28;20195;-79
2024/01/04 03:43:24;;;;;;;3.10;2.20;;;;;;;;;;5113540;28;20195;-79
2024/01/04 03:45:51;;;;;;;3.10;1.90;;;;;;;;;;5113716;28;20564;-79
2024/01/04 03:48:19;;;;;;;2.87;2.50;;;;;;;;;;5113316;28;20324;-79
2024/01/04 03:50:46;;;;;;;3.37;2.43;;;;;;;;;;5111735;28;20195;-79
2024/01/04 03:53:12;;;;;;;2.73;2.13;;;;;;;;;;5092550;28;20216;-79
2024/01/04 03:55:39;;;;;;;5.00;2.90;;;;;;;;;;5093141;28;20547;-79
2024/01/04 03:58:06;;;;;;;3.50;2.33;;;;;;;;;;5092795;28;20580;-79
2024/01/04 04:00:33;;;;;;;3.70;2.30;;;;;;;;;;5092527;28;20203;-79
2024/01/04 04:02:59;;;;;;;5.73;2.07;;;;;;;;;;5093015;28;20196;-79
2024/01/04 04:05:28;;;;;;;2.93;2.23;;;;;;;;;;5110775;28;20715;-79
2024/01/04 04:07:55;;;;;;;3.40;2.40;;;;;;;;;;5112020;28;20591;-79
2024/01/04 04:10:22;;;;;;;3.37;2.60;;;;;;;;;;5103509;28;20204;-80
2024/01/04 04:12:48;;;;;;;3.73;2.50;;;;;;;;;;5112958;28;20582;-79
2024/01/04 04:15:16;;;;;;;4.20;2.50;;;;;;;;;;5113047;28;20240;-79
2024/01/04 04:17:43;;;;;;;1.50;1.40;;;;;;;;;;5112625;28;20202;-79
2024/01/04 04:20:11;;;;;;;9.77;7.33;;;;;;;;;;5111240;28;20212;-80
2024/01/04 04:22:39;;;;;;;10.87;8.40;;;;;;;;;;5113178;28;20191;-81
2024/01/04 04:25:07;;;;;;;7.00;5.80;;;;;;;;;;5112865;28;20539;-78
2024/01/04 04:27:34;;;;;;;5.93;5.33;;;;;;;;;;5112850;28;20195;-77
2024/01/04 04:30:01;;;;;;;3.27;2.70;;;;;;;;;;5112483;28;20678;-77
2024/01/04 04:32:27;;;;;;;4.17;2.50;;;;;;;;;;5111491;28;20270;-77
2024/01/04 04:34:54;;;;;;;2.73;2.53;;;;;;;;;;5112706;28;20200;-78
2024/01/04 04:37:21;;;;;;;3.70;2.37;;;;;;;;;;5111002;28;20201;-76
2024/01/04 04:39:50;;;;;;;2.43;2.13;;;;;;;;;;5110497;28;20673;-77
2024/01/04 04:42:17;;;;;;;3.13;2.30;;;;;;;;;;5112035;28;20201;-77
2024/01/04 04:44:43;;;;;;;3.27;2.77;;;;;;;;;;5111512;28;20202;-77
2024/01/04 04:47:10;;;;;;;4.47;3.53;;;;;;;;;;5112119;28;20260;-77
2024/01/04 04:49:37;;;;;;;7.63;3.47;;;;;;;;;;5103345;28;20225;-77
2024/01/04 04:52:04;;;;;;;4.20;3.03;;;;;;;;;;5091964;28;20621;-77
2024/01/04 04:54:31;;;;;;;5.20;3.40;;;;;;;;;;5085604;28;20231;-77
2024/01/04 04:57:00;;;;;;;3.63;3.13;;;;;;;;;;5102267;28;20650;-79
2024/01/04 04:59:27;;;;;;;2.57;2.37;;;;;;;;;;5098204;28;20570;-84
2024/01/04 05:01:54;;;;;;;4.03;2.40;;;;;;;;;;5092289;28;20216;-76
2024/01/04 05:04:21;;;;;;;6.23;4.90;;;;;;;;;;5091871;28;20578;-79
2024/01/04 05:06:47;;;;;;;38.80;25.03;;;;;;;;;;5104344;28;20282;-79
2024/01/04 05:09:15;;;;;;;183.93;111.57;;;;;;;;;;5110312;28;20202;-80
2024/01/04 05:11:42;;;;;;;90.50;54.07;;;;;;;;;;5111951;28;20657;-77
2024/01/04 05:14:11;;;;;;;27.70;18.33;;;;;;;;;;5111913;28;20219;-78
2024/01/04 05:16:38;;;;;;;6.23;5.63;;;;;;;;;;5112153;28;20252;-78
2024/01/04 05:19:04;;;;;;;4.67;4.10;;;;;;;;;;5112401;28;20187;-77
2024/01/04 05:21:33;;;;;;;2.53;2.30;;;;;;;;;;5092961;28;20200;-77
2024/01/04 05:24:00;;;;;;;4.97;3.17;;;;;;;;;;5090989;28;20192;-77
2024/01/04 05:26:27;;;;;;;4.00;2.97;;;;;;;;;;5110615;28;20312;-77
2024/01/04 05:28:54;;;;;;;5.50;3.03;;;;;;;;;;5110980;28;20199;-77
2024/01/04 05:31:22;;;;;;;2.03;1.70;;;;;;;;;;5111752;28;20227;-77
2024/01/04 05:33:48;;;;;;;8.80;7.10;;;;;;;;;;5112090;28;20230;-77
2024/01/04 05:36:15;;;;;;;16.13;11.77;;;;;;;;;;5112599;28;20196;-77
2024/01/04 05:38:42;;;;;;;22.33;17.17;;;;;;;;;;5114642;28;20252;-77
2024/01/04 05:41:09;;;;;;;22.67;17.67;;;;;;;;;;5115958;28;20211;-77
2024/01/04 05:43:37;;;;;;;17.70;12.60;;;;;;;;;;5102146;28;20222;-77
2024/01/04 05:46:04;;;;;;;27.70;13.23;;;;;;;;;;5095835;28;20659;-77
2024/01/04 05:48:33;;;;;;;25.80;12.80;;;;;;;;;;5113806;28;20553;-77
2024/01/04 05:50:59;;;;;;;25.53;17.27;;;;;;;;;;5116106;28;20203;-77
2024/01/04 05:53:26;;;;;;;10.20;7.00;;;;;;;;;;5113800;28;20227;-77
2024/01/04 05:55:53;;;;;;;14.97;11.87;;;;;;;;;;5114481;28;20614;-77
2024/01/04 05:58:20;;;;;;;20.93;15.03;;;;;;;;;;5114030;28;20206;-77
2024/01/04 06:00:47;;;;;;;33.30;20.20;;;;;;;;;;5113852;28;20203;-78
2024/01/04 06:03:14;;;;;;;28.47;20.67;;;;;;;;;;5113792;28;20298;-77
2024/01/04 06:05:42;;;;;;;71.33;49.03;;;;;;;;;;5114156;28;20208;-77
2024/01/04 06:08:09;;;;;;;42.07;26.20;;;;;;;;;;5114145;28;20200;-77
2024/01/04 06:10:35;;;;;;;16.23;12.10;;;;;;;;;;5113958;28;20609;-77
2024/01/04 06:13:02;;;;;;;6.33;4.73;;;;;;;;;;5089259;28;20226;-78
2024/01/04 06:15:29;;;;;;;6.90;5.03;;;;;;;;;;5113756;28;20565;-77
2024/01/04 06:17:56;;;;;;;5.17;3.47;;;;;;;;;;5114139;28;20623;-77
2024/01/04 06:20:23;;;;;;;3.97;3.43;;;;;;;;;;5114205;28;20198;-77
2024/01/04 06:22:53;;;;;;;5.60;4.30;;;;;;;;;;5113845;28;20195;-77
2024/01/04 06:25:19;;;;;;;6.93;6.20;;;;;;;;;;5113041;28;20682;-77
2024/01/04 06:27:46;;;;;;;6.03;5.23;;;;;;;;;;5113654;28;20615;-77
2024/01/04 06:30:13;;;;;;;4.97;3.77;;;;;;;;;;5113772;28;20219;-78
2024/01/04 06:32:40;;;;;;;4.47;4.07;;;;;;;;;;5114498;28;20574;-77
2024/01/04 06:35:09;;;;;;;6.33;5.73;;;;;;;;;;5113706;28;20243;-77
2024/01/04 06:37:36;;;;;;;4.03;3.63;;;;;;;;;;5111032;28;20219;-77
2024/01/04 06:40:10;;;;;;;36.67;22.57;;;;;;;;;;5113738;28;20677;-77
2024/01/04 06:42:37;;;;;;;38.53;24.57;;;;;;;;;;5114125;28;20274;-77
2024/01/04 06:45:05;;;;;;;40.80;24.73;;;;;;;;;;5113595;28;20689;-77
2024/01/04 06:47:32;;;;;;;33.83;23.87;;;;;;;;;;5112550;28;20652;-77
2024/01/04 06:49:59;;;;;;;33.17;23.13;;;;;;;;;;5113832;28;20226;-77
2024/01/04 06:52:26;;;;;;;34.13;24.70;;;;;;;;;;5113415;28;20195;-77
2024/01/04 06:54:53;;;;;;;33.47;22.60;;;;;;;;;;5113477;28;20222;-77
2024/01/04 06:57:21;;;;;;;22.37;15.97;;;;;;;;;;5113241;28;20203;-77
2024/01/04 06:59:48;;;;;;;10.37;6.60;;;;;;;;;;5111288;28;20681;-77
2024/01/04 07:02:15;;;;;;;9.93;8.40;;;;;;;;;;5113252;28;20198;-77
2024/01/04 07:04:42;;;;;;;14.23;10.33;;;;;;;;;;5113736;28;20200;-77
2024/01/04 07:07:09;;;;;;;20.57;15.60;;;;;;;;;;5112835;28;20670;-77
2024/01/04 07:09:36;;;;;;;28.10;19.67;;;;;;;;;;5113167;28;20207;-77
2024/01/04 07:12:04;;;;;;;22.10;15.60;;;;;;;;;;5112745;28;20658;-77
2024/01/04 07:14:37;;;;;;;15.50;11.30;;;;;;;;;;5112871;28;20646;-77
2024/01/04 07:17:05;;;;;;;7.67;6.30;;;;;;;;;;5112781;28;20678;-77
2024/01/04 07:19:31;;;;;;;4.60;3.30;;;;;;;;;;5113009;28;20212;-77
2024/01/04 07:21:58;;;;;;;4.30;3.50;;;;;;;;;;5112582;28;20192;-77
2024/01/04 07:24:25;;;;;;;7.00;4.33;;;;;;;;;;5113067;28;20207;-77
2024/01/04 07:26:52;;;;;;;8.70;6.17;;;;;;;;;;5112087;28;20195;-77
2024/01/04 07:29:18;;;;;;;8.27;5.77;;;;;;;;;;5111392;28;20195;-77
2024/01/04 07:31:47;;;;;;;4.23;3.30;;;;;;;;;;5112850;28;20226;-77
2024/01/04 07:34:14;;;;;;;3.23;2.27;;;;;;;;;;5112262;28;20223;-77
2024/01/04 07:36:40;;;;;;;2.10;1.83;;;;;;;;;;5112730;28;20199;-77
2024/01/04 07:39:09;;;;;;;3.30;1.90;;;;;;;;;;5108423;28;20208;-77
2024/01/04 07:41:35;;;;;;;10.60;8.53;;;;;;;;;;5112608;28;20184;-77
2024/01/04 07:44:02;;;;;;;9.10;8.13;;;;;;;;;;5112157;28;20199;-77
2024/01/04 07:46:30;;;;;;;7.63;6.77;;;;;;;;;;5112996;28;20196;-77
2024/01/04 07:48:59;;;;;;;6.67;6.07;;;;;;;;;;5112625;28;20200;-77
2024/01/04 07:51:25;;;;;;;6.00;5.40;;;;;;;;;;5112231;28;20203;-77
2024/01/04 07:53:52;;;;;;;6.33;4.80;;;;;;;;;;5112139;28;20720;-77
2024/01/04 07:56:19;;;;;;;4.43;4.03;;;;;;;;;;5112280;28;20263;-77
2024/01/04 07:58:47;;;;;;;3.53;3.00;;;;;;;;;;5111447;28;20204;-77
2024/01/04 08:01:14;;;;;;;2.80;2.60;;;;;;;;;;5112588;28;20252;-77
2024/01/04 08:03:41;;;;;;;3.23;2.83;;;;;;;;;;5111818;28;20292;-78
2024/01/04 08:06:09;;;;;;;4.00;3.67;;;;;;;;;;5112301;28;20204;-79
2024/01/04 08:08:36;;;;;;;4.33;3.93;;;;;;;;;;5111612;28;20654;-77
2024/01/04 08:11:03;;;;;;;42.67;29.30;;;;;;;;;;5111985;28;20261;-77
2024/01/04 08:13:30;;;;;;;15.33;12.47;;;;;;;;;;5111486;28;20677;-77
2024/01/04 08:15:58;;;;;;;18.20;12.27;;;;;;;;;;5111734;28;21573;-77
2024/01/04 08:18:25;;;;;;;11.20;10.00;;;;;;;;;;5112145;28;20252;-78
2024/01/04 08:20:52;;;;;;;14.03;12.53;;;;;;;;;;5112022;28;20677;-77
2024/01/04 08:23:22;;;;;;;12.30;11.00;;;;;;;;;;5111832;28;20223;-77
2024/01/04 08:25:51;;;;;;;7.00;6.13;;;;;;;;;;5112281;28;20195;-77
2024/01/04 08:28:18;;;;;;;6.57;5.07;;;;;;;;;;5111657;28;20202;-77
2024/01/04 08:30:45;;;;;;;4.87;3.50;;;;;;;;;;5112029;28;20199;-77
2024/01/04 08:33:12;;;;;;;10.73;9.03;;;;;;;;;;5111699;28;20260;-77
2024/01/04 08:35:38;;;;;;;11.63;10.27;;;;;;;;;;5111278;28;20219;-77
2024/01/04 08:38:06;;;;;;;8.73;6.83;;;;;;;;;;5085515;28;20195;-77
2024/01/04 08:40:36;;;;;;;12.00;8.97;;;;;;;;;;5111700;28;20662;-77
2024/01/04 08:43:03;;;;;;;12.20;9.60;;;;;;;;;;5111668;28;20273;-77
2024/01/04 08:45:30;;;;;;;15.50;10.10;;;;;;;;;;5111465;28;20646;-77
2024/01/04 08:47:58;;;;;;;14.50;10.80;;;;;;;;;;5111297;28;20208;-77
2024/01/04 08:50:25;;;;;;;10.60;7.37;;;;;;;;;;5111327;28;20198;-77
2024/01/04 08:52:52;;;;;;;7.20;6.13;;;;;;;;;;5111654;28;20192;-77
2024/01/04 08:55:20;;;;;;;5.43;4.93;;;;;;;;;;5111264;28;20227;-77
2024/01/04 08:57:48;;;;;;;7.87;6.67;;;;;;;;;;5111256;28;20196;-77
2024/01/04 09:00:15;;;;;;;4.10;3.70;;;;;;;;;;5111490;28;20203;-77
2024/01/04 09:02:43;;;;;;;3.60;3.30;;;;;;;;;;5111379;28;20203;-77
2024/01/04 09:05:10;;;;;;;4.97;4.47;;;;;;;;;;5110931;28;20195;-78
2024/01/04 09:07:37;;;;;;;8.30;7.30;;;;;;;;;;5110832;28;20217;-77
2024/01/04 09:10:05;;;;;;;5.33;4.83;;;;;;;;;;5111223;28;20191;-78
2024/01/04 09:12:31;;;;;;;5.77;4.70;;;;;;;;;;5114582;28;20191;-77
2024/01/04 09:14:59;;;;;;;7.33;4.67;;;;;;;;;;5113191;28;20713;-77
2024/01/04 09:17:26;;;;;;;5.10;4.60;;;;;;;;;;5115669;28;20214;-77
2024/01/04 09:19:53;;;;;;;7.73;5.97;;;;;;;;;;5115731;28;20269;-77
2024/01/04 09:22:20;;;;;;;12.60;8.23;;;;;;;;;;5115126;28;20278;-77
2024/01/04 09:24:47;;;;;;;7.60;6.87;;;;;;;;;;5115493;28;20191;-77
2024/01/04 09:27:13;;;;;;;11.20;7.33;;;;;;;;;;5115335;28;20245;-78
2024/01/04 09:29:41;;;;;;;9.37;8.40;;;;;;;;;;5115271;28;20202;-78
2024/01/04 09:32:09;;;;;;;6.53;5.50;;;;;;;;;;5114996;28;20219;-78
2024/01/04 09:34:36;;;;;;;3.40;3.10;;;;;;;;;;5114994;28;20219;-77
2024/01/04 09:37:03;;;;;;;2.37;2.17;;;;;;;;;;5114813;28;20551;-77
2024/01/04 09:39:30;;;;;;;3.13;2.83;;;;;;;;;;5114972;28;20202;-78
2024/01/04 09:41:57;;;;;;;2.47;2.27;;;;;;;;;;5114792;28;20199;-77
2024/01/04 09:44:25;;;;;;;3.53;2.33;;;;;;;;;;5114348;28;20199;-77
2024/01/04 09:46:54;;;;;;;3.33;2.80;;;;;;;;;;5115267;28;20206;-77
2024/01/04 09:49:22;;;;;;;4.20;3.73;;;;;;;;;;5114969;28;20196;-78
2024/01/04 09:51:49;;;;;;;8.10;5.30;;;;;;;;;;5114685;28;20666;-78
2024/01/04 09:54:17;;;;;;;5.13;3.80;;;;;;;;;;5114373;28;20188;-78
2024/01/04 09:56:46;;;;;;;4.40;2.60;;;;;;;;;;5115046;28;20209;-78
2024/01/04 09:59:13;;;;;;;2.47;1.80;;;;;;;;;;5083774;28;20291;-78
2024/01/04 10:01:40;;;;;;;1.90;1.80;;;;;;;;;;5114623;28;20203;-78
2024/01/04 10:04:12;;;;;;;2.23;2.03;;;;;;;;;;5114350;28;20264;-78
2024/01/04 10:06:42;;;;;;;4.70;3.20;;;;;;;;;;5114302;28;20264;-78
2024/01/04 10:09:15;;;;;;;3.17;2.37;;;;;;;;;;5114641;28;20199;-78
2024/01/04 10:11:55;;;;;;;2.20;2.00;;;;;;;;;;5113865;28;20199;-78
2024/01/04 10:14:22;;;;;;;1.67;1.57;;;;;;;;;;5114217;28;20255;-78
2024/01/04 10:16:49;;;;;;;2.83;1.80;;;;;;;;;;5114316;28;20225;-78
2024/01/04 10:19:16;;;;;;;2.00;1.80;;;;;;;;;;5114075;28;20191;-78
2024/01/04 10:21:44;;;;;;;4.27;2.10;;;;;;;;;;5113874;28;20202;-78
2024/01/04 10:24:15;;;;;;;3.20;1.93;;;;;;;;;;5113967;28;20202;-79
2024/01/04 10:26:42;;;;;;;3.77;2.93;;;;;;;;;;5114366;28;20187;-78
2024/01/04 10:29:09;;;;;;;3.37;1.90;;;;;;;;;;5113813;28;20199;-79
2024/01/04 10:31:36;;;;;;;6.10;1.43;;;;;;;;;;5114156;28;20220;-78
2024/01/04 10:34:03;;;;;;;2.93;2.20;;;;;;;;;;5113490;28;20207;-78
2024/01/04 10:36:32;;;;;;;2.53;2.30;;;;;;;;;;5114072;28;20215;-78
2024/01/04 10:39:01;;;;;;;3.93;1.87;;;;;;;;;;5113724;28;20196;-78
2024/01/04 10:41:29;;;;;;;6.07;2.90;;;;;;;;;;5113385;28;20207;-79
2024/01/04 10:44:06;;;;;;;3.30;2.07;;;;;;;;;;5113571;28;20200;-79
2024/01/04 10:46:35;;;;;;;1.70;1.50;;;;;;;;;;5113885;28;20207;-78
2024/01/04 10:49:02;;;;;;;2.23;2.00;;;;;;;;;;5113534;28;20262;-79
2024/01/04 10:51:30;;;;;;;2.80;2.60;;;;;;;;;;5113735;28;20651;-79
2024/01/04 10:54:00;;;;;;;2.47;2.20;;;;;;;;;;5113128;28;20196;-79
2024/01/04 10:56:29;;;;;;;3.13;1.87;;;;;;;;;;5113423;28;20224;-79
2024/01/04 10:58:57;;;;;;;2.33;1.83;;;;;;;;;;5113195;28;20192;-79
2024/01/04 11:01:24;;;;;;;2.87;1.87;;;;;;;;;;5113368;28;20210;-78
2024/01/04 11:03:51;;;;;;;1.73;1.63;;;;;;;;;;5113122;28;20196;-79
2024/01/04 11:06:20;;;;;;;1.70;1.60;;;;;;;;;;5113045;28;20199;-78
2024/01/04 11:08:48;;;;;;;1.70;1.53;;;;;;;;;;5113381;28;20208;-79
2024/01/04 11:11:15;;;;;;;3.03;2.33;;;;;;;;;;5113235;28;20194;-79
2024/01/04 11:13:43;;;;;;;2.30;2.10;;;;;;;;;;5113295;28;20590;-79
2024/01/04 11:16:19;;;;;;;5.17;1.73;;;;;;;;;;5113036;28;20279;-79
2024/01/04 11:18:56;;;;;;;2.17;1.40;;;;;;;;;;5113209;28;20199;-79
2024/01/04 11:21:40;;;;;;;1.97;1.77;;;;;;;;;;5112656;28;20204;-78
2024/01/04 11:24:09;;;;;;;5.30;3.80;;;;;;;;;;5112897;28;20200;-79
2024/01/04 11:26:41;;;;;;;4.00;3.60;;;;;;;;;;5112812;28;20202;-79
2024/01/04 11:29:10;;;;;;;8.67;5.10;;;;;;;;;;5112726;28;20202;-79
2024/01/04 11:31:42;;;;;;;4.40;2.50;;;;;;;;;;5085456;28;20224;-79
2024/01/04 11:34:11;;;;;;;2.87;2.57;;;;;;;;;;5112684;28;20226;-79
2024/01/04 11:36:38;;;;;;;6.87;5.93;;;;;;;;;;5113280;28;20215;-79
2024/01/04 11:39:05;;;;;;;7.37;6.23;;;;;;;;;;5112644;28;20196;-79
2024/01/04 11:41:33;;;;;;;7.10;6.07;;;;;;;;;;5112521;28;20664;-78
2024/01/04 11:44:00;;;;;;;9.47;8.17;;;;;;;;;;5110824;28;20241;-79
2024/01/04 11:46:30;;;;;;;9.80;8.57;;;;;;;;;;5112913;28;20195;-78
2024/01/04 11:48:57;;;;;;;6.83;6.20;;;;;;;;;;5112218;28;20289;-79
2024/01/04 11:51:35;;;;;;;4.27;3.77;;;;;;;;;;5112070;28;20197;-78
2024/01/04 11:54:02;;;;;;;6.73;4.80;;;;;;;;;;5112494;28;20207;-78
2024/01/04 11:56:30;;;;;;;3.47;3.10;;;;;;;;;;5112488;28;20218;-78
2024/01/04 11:59:07;;;;;;;9.77;7.10;;;;;;;;;;5112295;28;20196;-78
2024/01/04 12:01:36;;;;;;;6.00;3.07;;;;;;;;;;5112670;28;20282;-78
2024/01/04 12:04:11;;;;;;;3.67;2.77;;;;;;;;;;5098991;28;20197;-79
2024/01/04 12:06:39;;;;;;;6.43;4.87;;;;;;;;;;5112322;28;20254;-78
2024/01/04 12:09:07;;;;;;;3.00;2.80;;;;;;;;;;5111946;28;20198;-78
2024/01/04 12:11:35;;;;;;;6.10;4.67;;;;;;;;;;5112613;28;20292;-78
2024/01/04 12:14:03;;;;;;;3.40;3.10;;;;;;;;;;5112129;28;20574;-78
2024/01/04 12:16:29;;;;;;;5.33;4.20;;;;;;;;;;5111469;28;20716;-78
2024/01/04 12:18:58;;;;;;;4.20;3.27;;;;;;;;;;5111928;28;20198;-78
2024/01/04 12:21:25;;;;;;;5.93;3.40;;;;;;;;;;5110502;28;20203;-78
2024/01/04 12:23:52;;;;;;;3.77;2.70;;;;;;;;;;5111841;28;20203;-78
2024/01/04 12:26:23;;;;;;;2.40;2.20;;;;;;;;;;5112335;28;20187;-78
2024/01/04 12:28:52;;;;;;;3.43;2.53;;;;;;;;;;5111688;28;20662;-78
2024/01/04 12:31:19;;;;;;;6.00;4.37;;;;;;;;;;5108808;28;20262;-78
2024/01/04 12:33:50;;;;;;;5.73;4.13;;;;;;;;;;5111684;28;20195;-78
2024/01/04 12:36:21;;;;;;;6.70;6.03;;;;;;;;;;5111352;28;20712;-78
2024/01/04 12:38:49;;;;;;;7.10;5.40;;;;;;;;;;5111730;28;20212;-78
2024/01/04 12:41:25;;;;;;;4.77;4.27;;;;;;;;;;5110930;28;20206;-78
2024/01/04 12:43:53;;;;;;;6.57;5.03;;;;;;;;;;5110938;28;20680;-78
2024/01/04 12:46:22;;;;;;;4.70;4.30;;;;;;;;;;5112115;28;20202;-78
2024/01/04 12:48:48;;;;;;;4.37;3.97;;;;;;;;;;5110394;28;20681;-78
2024/01/04 12:51:15;;;;;;;8.03;3.80;;;;;;;;;;5111460;28;20206;-78
2024/01/04 12:53:45;;;;;;;4.13;3.07;;;;;;;;;;5111471;28;20230;-78
2024/01/04 12:56:12;;;;;;;3.50;3.23;;;;;;;;;;5111680;28;20223;-78
2024/01/04 12:58:39;;;;;;;4.67;3.60;;;;;;;;;;5111090;28;20210;-78
2024/01/04 13:01:05;;;;;;;3.80;3.40;;;;;;;;;;5111696;28;20207;-78
2024/01/04 13:03:32;;;;;;;5.03;3.77;;;;;;;;;;5110716;28;20251;-78
2024/01/04 13:05:59;;;;;;;8.73;4.00;;;;;;;;;;5111580;28;20196;-78
2024/01/04 13:08:27;;;;;;;4.30;3.90;;;;;;;;;;5111321;28;20192;-78
2024/01/04 13:10:56;;;;;;;7.07;3.87;;;;;;;;;;5111705;28;20203;-78
2024/01/04 13:13:23;;;;;;;5.13;3.97;;;;;;;;;;5110984;28;20589;-78
2024/01/04 13:15:50;;;;;;;6.17;4.63;;;;;;;;;;5111630;28;20216;-78
2024/01/04 13:18:17;;;;;;;5.63;4.50;;;;;;;;;;5111370;28;20187;-78
2024/01/04 13:20:44;;;;;;;7.30;6.03;;;;;;;;;;5111016;28;20251;-78
2024/01/04 13:23:10;;;;;;;128.80;63.23;;;;;;;;;;5110939;28;20259;-78
2024/01/04 13:25:37;;;;;;;61.93;32.67;;;;;;;;;;5111346;28;20195;-79
2024/01/04 13:28:08;;;;;;;39.20;24.10;;;;;;;;;;5110534;28;20259;-78
2024/01/04 13:30:35;;;;;;;37.03;26.57;;;;;;;;;;5111021;28;20230;-78
2024/01/04 13:33:03;;;;;;;17.40;14.80;;;;;;;;;;5110684;28;20248;-78
2024/01/04 13:35:29;;;;;;;16.43;14.70;;;;;;;;;;5111032;28;20203;-78
2024/01/04 13:37:56;;;;;;;6.57;5.97;;;;;;;;;;5110590;28;20769;-77
2024/01/04 13:40:23;;;;;;;13.37;11.97;;;;;;;;;;5111254;28;20617;-77
2024/01/04 13:42:53;;;;;;;5.33;4.83;;;;;;;;;;5110477;28;20192;-77
2024/01/04 13:45:22;;;;;;;6.70;6.10;;;;;;;;;;5111136;28;20206;-77
2024/01/04 13:47:49;;;;;;;6.30;5.27;;;;;;;;;;5083381;28;20191;-77
2024/01/04 13:50:16;;;;;;;19.20;13.13;;;;;;;;;;5110527;28;20754;-78
2024/01/04 13:52:43;;;;;;;45.63;24.93;;;;;;;;;;5111100;28;20609;-78
2024/01/04 13:55:11;;;;;;;14.07;12.47;;;;;;;;;;5110474;28;20617;-78
2024/01/04 13:57:37;;;;;;;11.50;10.30;;;;;;;;;;5104160;28;20244;-78
2024/01/04 14:00:08;;;;;;;10.90;9.80;;;;;;;;;;5098700;28;20223;-78
2024/01/04 14:02:36;;;;;;;6.47;5.87;;;;;;;;;;5114614;28;20206;-78
2024/01/04 14:05:03;;;;;;;7.93;5.13;;;;;;;;;;5114640;28;20207;-78
2024/01/04 14:07:30;;;;;;;3.73;3.23;;;;;;;;;;5115060;28;20278;-78
2024/01/04 14:09:57;;;;;;;5.50;3.50;;;;;;;;;;5114060;28;20195;-78
2024/01/04 14:12:23;;;;;;;4.10;3.70;;;;;;;;;;5113555;28;20424;-78
2024/01/04 14:14:50;;;;;;;2.90;2.60;;;;;;;;;;5114510;28;20203;-78
2024/01/04 14:17:17;;;;;;;7.87;4.13;;;;;;;;;;5114067;28;20215;-78
2024/01/04 14:19:45;;;;;;;11.07;7.33;;;;;;;;;;5114335;28;20203;-78
2024/01/04 14:22:12;;;;;;;11.03;7.73;;;;;;;;;;5113351;28;20199;-78
2024/01/04 14:24:39;;;;;;;9.07;6.47;;;;;;;;;;5114617;28;20550;-78
2024/01/04 14:27:06;;;;;;;23.77;13.80;;;;;;;;;;5114367;28;20219;-78
2024/01/04 14:29:34;;;;;;;29.30;26.20;;;;;;;;;;5114681;28;20233;-78
2024/01/04 14:32:00;;;;;;;100.17;77.43;;;;;;;;;;5114458;28;20301;-78
2024/01/04 14:34:27;;;;;;;36.67;24.70;;;;;;;;;;5114219;28;20195;-78
2024/01/04 14:36:55;;;;;;;10.97;5.00;;;;;;;;;;5113696;28;20222;-78
2024/01/04 14:39:22;;;;;;;5.77;4.27;;;;;;;;;;5113148;28;20570;-78
2024/01/04 14:41:49;;;;;;;48.13;34.83;;;;;;;;;;5113888;28;20218;-79